OKEO2: Sand Creek near Okesa

Data processed at Thu May 23 2019 23:50


All information presented herein is the property of the government of the United States of America and may be revised or deleted at any time without prior notice.
Dissemination of this information without the expressed written consent of the Public Affairs Office, Tulsa District U.S. Army Corps of Engineers is strictly prohibited.
These data are gathered electronically and, as presented, have not undergone any form of quality control. These data are not guaranteed to be valid or correct.
Go to home page.
Go to station list.
Go to home page.

Downstream station:


Previous Day
Next Day
Current Day
    
SHEF ID:       OKEO2     Sand Creek Below Little Rock Cre
STATION TYPE:  

               PRECIP     STAGE  STAGE(2)  RIV-FLOW  BAT-LOAD
                   in        ft        ft       cfs      volt
              Ccp-Rev   Ccp-Rev   Ccp-Rev   Ccp-Rev   Ccp-Rev
(US/Central)
05/23 00:00      0.34     16.86      ----      4433     12.57
05/23 01:00      0.83     20.18      ----      6373     12.57
05/23 02:00      0.02     21.86      ----      7519     12.57
05/23 03:00      0.07     23.27      ----      8480     12.49
05/23 04:00      0.00     23.74      ----      8800     12.49
05/23 05:00      0.01     22.95      ----      8262     12.49
05/23 06:00      0.00     22.19      ----      7744     12.49
05/23 07:00      0.00     21.41      ----      7212     12.49
05/23 08:00      0.09     20.44      ----      6551     12.49
05/23 09:00      0.00     19.30      ----      5801     12.49
05/23 10:00      0.00     18.10      ----      5128     12.49
05/23 11:00      0.00     16.92      ----      4466     12.89
05/23 12:00      0.00     15.82      ----      3849     12.97
05/23 13:00      0.00     14.81      ----      3313     13.05
05/23 14:00      0.00     13.93      ----      2848     13.44
05/23 15:00      0.00     13.19      ----      2457     13.44
05/23 16:00      0.00     12.60      ----      2145     13.37
05/23 17:00      0.00     12.10      ----      1880     13.29
05/23 18:00      0.00     11.73      ----      1685     13.21
05/23 19:00      0.00     11.40      ----      1510     12.97
05/23 20:00      0.00     11.13      ----      1368     12.81
05/23 21:00      0.00     10.87      ----      1261     12.65
05/23 22:00      0.00     10.65      ----      1185     12.65
05/23 23:00      0.00     10.46      ----      1119     12.57